Time;durP1;ratioP1;P1;durP2;ratioP2;P2;SDS_P1;SDS_P2;PMS_P1;PMS_P2;Temp;Humidity;BMP_temperature;BMP_pressure;BME280_temperature;BME280_humidity;BME280_pressure;Samples;Min_cycle;Max_cycle;Signal;HPM_P1;HPM_P2
2024/02/24 00:01:22;;;;;;;11.00;5.23;;;2.30;99.90;;;;;;5040106;28;20298;-55
2024/02/24 00:03:47;;;;;;;11.13;5.10;;;2.30;99.90;;;;;;5032363;28;20234;-55
2024/02/24 00:06:13;;;;;;;10.20;4.67;;;2.40;99.90;;;;;;5038290;28;20179;-54
2024/02/24 00:08:38;;;;;;;12.87;5.03;;;2.50;99.90;;;;;;5041349;28;20201;-54
2024/02/24 00:11:04;;;;;;;11.57;4.90;;;2.40;99.90;;;;;;5031682;28;20275;-54
2024/02/24 00:13:30;;;;;;;11.03;4.90;;;2.30;99.90;;;;;;5039758;28;20223;-56
2024/02/24 00:15:55;;;;;;;13.17;5.07;;;2.30;99.90;;;;;;5035799;28;20182;-51
2024/02/24 00:18:21;;;;;;;13.60;4.30;;;2.40;99.90;;;;;;5035103;28;20614;-51
2024/02/24 00:20:47;;;;;;;9.73;4.60;;;2.40;99.90;;;;;;5051125;28;20188;-53
2024/02/24 00:23:12;;;;;;;9.80;4.13;;;2.30;99.90;;;;;;5036528;28;20210;-53
2024/02/24 00:25:38;;;;;;;10.20;4.60;;;2.30;99.90;;;;;;5033040;28;20286;-54
2024/02/24 00:28:04;;;;;;;8.30;3.93;;;2.30;99.90;;;;;;5045392;28;20556;-52
2024/02/24 00:30:29;;;;;;;7.73;4.20;;;2.30;99.90;;;;;;5031851;28;20218;-54
2024/02/24 00:32:55;;;;;;;8.57;4.67;;;2.30;99.90;;;;;;5038844;28;20210;-51
2024/02/24 00:35:21;;;;;;;10.53;4.50;;;2.30;99.90;;;;;;5038682;28;20186;-56
2024/02/24 00:37:47;;;;;;;12.10;4.40;;;2.30;99.90;;;;;;5039193;28;20192;-56
2024/02/24 00:40:13;;;;;;;15.23;4.77;;;2.20;99.90;;;;;;5031184;28;20567;-53
2024/02/24 00:42:39;;;;;;;11.03;4.50;;;2.10;99.90;;;;;;5040960;28;20289;-57
2024/02/24 00:45:05;;;;;;;10.93;4.83;;;2.10;99.90;;;;;;5042567;28;20693;-56
2024/02/24 00:47:31;;;;;;;9.73;5.13;;;2.00;99.90;;;;;;5041043;28;20728;-54
2024/02/24 00:49:56;;;;;;;13.17;5.37;;;1.90;99.90;;;;;;5034792;28;20194;-58
2024/02/24 00:52:22;;;;;;;16.87;5.50;;;1.80;99.90;;;;;;5042312;28;20247;-54
2024/02/24 00:54:47;;;;;;;10.77;4.50;;;1.80;99.90;;;;;;5031111;28;20176;-57
2024/02/24 00:57:13;;;;;;;11.53;5.07;;;1.90;99.90;;;;;;5038480;28;20578;-56
2024/02/24 00:59:38;;;;;;;11.20;4.87;;;1.80;99.90;;;;;;5038824;28;20536;-56
2024/02/24 01:02:04;;;;;;;11.87;4.47;;;1.80;99.90;;;;;;5030545;28;20211;-56
2024/02/24 01:04:30;;;;;;;15.50;4.83;;;1.80;99.90;;;;;;5030673;28;20187;-53
2024/02/24 01:06:56;;;;;;;9.67;3.73;;;1.70;99.90;;;;;;5030075;28;20701;-52
2024/02/24 01:09:22;;;;;;;11.90;4.30;;;1.60;99.90;;;;;;5030628;28;20195;-57
2024/02/24 01:11:47;;;;;;;8.67;3.70;;;1.60;99.90;;;;;;5030772;28;20199;-58
2024/02/24 01:14:13;;;;;;;11.00;4.20;;;1.40;99.90;;;;;;5038677;28;20238;-56
2024/02/24 01:16:44;;;;;;;14.13;4.53;;;1.30;99.90;;;;;;5031877;28;20191;-53
2024/02/24 01:19:10;;;;;;;9.30;4.20;;;1.30;99.90;;;;;;5050473;28;20191;-58
2024/02/24 01:21:42;;;;;;;10.00;4.13;;;1.30;99.90;;;;;;5033578;28;20208;-57
2024/02/24 01:24:08;;;;;;;9.40;4.00;;;1.20;99.90;;;;;;5044378;28;20194;-57
2024/02/24 01:26:34;;;;;;;13.63;4.27;;;1.30;99.90;;;;;;5029897;28;20179;-53
2024/02/24 01:28:59;;;;;;;13.10;4.07;;;1.30;99.90;;;;;;5029836;28;20176;-56
2024/02/24 01:31:25;;;;;;;9.50;4.03;;;1.30;99.90;;;;;;5038337;28;20581;-55
2024/02/24 01:33:51;;;;;;;11.43;4.20;;;1.10;99.90;;;;;;5030013;28;20484;-55
2024/02/24 01:36:16;;;;;;;7.00;3.70;;;1.10;99.90;;;;;;5029875;28;20192;-56
2024/02/24 01:38:42;;;;;;;13.77;4.40;;;1.10;99.90;;;;;;5029487;28;20282;-55
2024/02/24 01:41:07;;;;;;;10.40;4.10;;;1.20;99.90;;;;;;5038161;28;20717;-57
2024/02/24 01:43:37;;;;;;;17.90;4.60;;;1.10;99.90;;;;;;5029730;28;20671;-54
2024/02/24 01:46:03;;;;;;;10.17;4.20;;;1.10;99.90;;;;;;5030408;28;20223;-56
2024/02/24 01:48:31;;;;;;;9.03;4.17;;;1.10;99.90;;;;;;5029493;28;20211;-55
2024/02/24 01:50:57;;;;;;;9.07;3.67;;;1.10;99.90;;;;;;5033896;28;20275;-54
2024/02/24 01:53:24;;;;;;;7.33;3.60;;;1.20;99.90;;;;;;5033638;28;20207;-56
2024/02/24 01:55:50;;;;;;;9.20;4.00;;;1.10;99.90;;;;;;5029581;28;20637;-57
2024/02/24 01:58:20;;;;;;;9.23;3.77;;;1.10;99.90;;;;;;5029261;28;20215;-55
2024/02/24 02:00:46;;;;;;;12.23;4.83;;;1.10;99.90;;;;;;5037053;28;20215;-56
2024/02/24 02:03:12;;;;;;;10.83;4.23;;;1.00;99.90;;;;;;5029548;28;20239;-57
2024/02/24 02:05:38;;;;;;;15.60;4.23;;;0.90;99.90;;;;;;5029543;28;20187;-58
2024/02/24 02:08:04;;;;;;;10.33;4.13;;;0.80;99.90;;;;;;5042392;28;20222;-54
2024/02/24 02:10:52;;;;;;;9.50;4.13;;;0.80;99.90;;;;;;5040746;28;20274;-55
2024/02/24 02:13:19;;;;;;;10.20;4.50;;;0.80;99.90;;;;;;5029463;28;20207;-57
2024/02/24 02:15:45;;;;;;;11.63;4.80;;;0.80;99.90;;;;;;5037957;28;20532;-55
2024/02/24 02:18:11;;;;;;;11.63;4.57;;;;;;;;;;5029057;28;20191;-57
2024/02/24 02:20:37;;;;;;;11.50;3.90;;;;;;;;;;5037614;28;20196;-56
2024/02/24 02:23:03;;;;;;;14.50;4.97;;;;;;;;;;5029339;28;20552;-56
2024/02/24 02:25:29;;;;;;;9.83;4.27;;;;;;;;;;5045441;28;20198;-54
2024/02/24 02:27:55;;;;;;;10.23;4.37;;;;;;;;;;5045095;28;20273;-53
2024/02/24 02:30:21;;;;;;;13.77;4.90;;;;;;;;;;5029613;28;20563;-55
2024/02/24 02:32:47;;;;;;;13.70;4.17;;;;;;;;;;5031833;28;20230;-55
2024/02/24 02:35:13;;;;;;;11.80;4.80;;;;;;;;;;5042926;28;20266;-56
2024/02/24 02:37:39;;;;;;;14.67;4.83;;;;;;;;;;5030205;28;20250;-55
2024/02/24 02:40:05;;;;;;;10.27;3.90;;;;;;;;;;5040818;28;20210;-55
2024/02/24 02:42:31;;;;;;;12.03;5.00;;;;;;;;;;5040733;28;20683;-54
2024/02/24 02:44:57;;;;;;;11.10;4.33;;;;;;;;;;5045266;28;20199;-54
2024/02/24 02:47:23;;;;;;;11.47;4.57;;;;;;;;;;5028515;28;20683;-54
2024/02/24 02:49:49;;;;;;;10.90;4.37;;;;;;;;;;5029033;28;20553;-54
2024/02/24 02:52:15;;;;;;;9.80;4.00;;;;;;;;;;5029139;28;20246;-55
2024/02/24 02:54:41;;;;;;;9.73;4.07;;;;;;;;;;5037010;28;20186;-57
2024/02/24 02:57:07;;;;;;;7.80;4.03;;;;;;;;;;5036759;28;20188;-53
2024/02/24 02:59:36;;;;;;;9.00;4.17;;;;;;;;;;5038206;28;20252;-56
2024/02/24 03:02:02;;;;;;;7.63;4.07;;;;;;;;;;5036136;28;20210;-53
2024/02/24 03:04:28;;;;;;;11.43;4.40;;;;;;;;;;5029259;28;20192;-55
2024/02/24 03:06:54;;;;;;;12.37;4.80;;;;;;;;;;5028445;28;20662;-53
2024/02/24 03:09:20;;;;;;;10.40;4.07;;;;;;;;;;5044271;28;20187;-54
2024/02/24 03:11:46;;;;;;;11.73;4.03;;;;;;;;;;5038294;28;20207;-57
2024/02/24 03:14:12;;;;;;;12.43;4.70;;;;;;;;;;5047254;28;20197;-55
2024/02/24 03:16:38;;;;;;;14.13;4.73;;;;;;;;;;5035821;28;20184;-58
2024/02/24 03:19:06;;;;;;;10.90;4.60;;;;;;;;;;5039135;28;20195;-56
2024/02/24 03:21:32;;;;;;;10.20;4.67;;;;;;;;;;5041445;28;20273;-60
2024/02/24 03:24:02;;;;;;;8.67;4.43;;;;;;;;;;5040053;28;20176;-54
2024/02/24 03:26:28;;;;;;;14.30;4.97;;;;;;;;;;5040529;28;20730;-53
2024/02/24 03:28:55;;;;;;;9.87;4.73;;;;;;;;;;5048447;28;20259;-56
2024/02/24 03:31:21;;;;;;;12.07;4.30;;;;;;;;;;5040724;28;20212;-54
2024/02/24 03:33:47;;;;;;;11.13;4.63;;;;;;;;;;5040707;28;20248;-54
2024/02/24 03:36:13;;;;;;;8.77;4.47;;;;;;;;;;5032309;28;20195;-58
2024/02/24 03:38:40;;;;;;;8.50;4.07;;;;;;;;;;5049770;28;20183;-56
2024/02/24 03:41:06;;;;;;;8.77;4.40;;;;;;;;;;5038892;28;20237;-57
2024/02/24 03:43:32;;;;;;;11.37;4.10;;;;;;;;;;5040377;28;20928;-56
2024/02/24 03:45:58;;;;;;;7.97;4.00;;;;;;;;;;5032095;28;20237;-58
2024/02/24 03:48:23;;;;;;;11.43;4.43;;;;;;;;;;5039927;28;20265;-56
2024/02/24 03:50:49;;;;;;;8.33;4.03;;;;;;;;;;5040343;28;20546;-55
2024/02/24 03:53:15;;;;;;;8.63;3.70;;;;;;;;;;5046755;28;20629;-58
2024/02/24 03:55:42;;;;;;;8.33;3.80;;;;;;;;;;5035532;28;20226;-55
2024/02/24 03:58:09;;;;;;;9.20;3.63;;;;;;;;;;5046086;28;20192;-54
2024/02/24 04:00:35;;;;;;;8.90;3.70;;;;;;;;;;5031791;28;20282;-55
2024/02/24 04:03:01;;;;;;;7.50;3.37;;;;;;;;;;5040257;28;20298;-58
2024/02/24 04:05:28;;;;;;;7.37;3.70;;;;;;;;;;5032009;28;20271;-57
2024/02/24 04:07:54;;;;;;;11.70;3.70;;;;;;;;;;5039452;28;20254;-57
2024/02/24 04:10:20;;;;;;;9.50;3.43;;;;;;;;;;5040289;28;20642;-57
2024/02/24 04:12:46;;;;;;;8.27;3.20;;;;;;;;;;5033973;28;20208;-55
2024/02/24 04:15:17;;;;;;;8.20;2.97;;;;;;;;;;5043265;28;20194;-56
2024/02/24 04:17:43;;;;;;;13.33;3.70;;;;;;;;;;5042692;28;20195;-55
2024/02/24 04:20:10;;;;;;;7.87;3.30;;;;;;;;;;5037736;28;20191;-58
2024/02/24 04:22:36;;;;;;;10.23;3.90;;;;;;;;;;5039905;28;20214;-55
2024/02/24 04:25:02;;;;;;;8.87;3.93;;;;;;;;;;5039156;28;20196;-57
2024/02/24 04:27:27;;;;;;;8.93;3.77;;;;;;;;;;5039224;28;20273;-56
2024/02/24 04:29:53;;;;;;;12.30;3.47;;;;;;;;;;5031481;28;20178;-55
2024/02/24 04:32:19;;;;;;;18.00;4.07;;;;;;;;;;5031350;28;20211;-59
2024/02/24 04:34:45;;;;;;;13.30;3.40;;;;;;;;;;5039382;28;20667;-57
2024/02/24 04:37:11;;;;;;;7.33;3.10;;;;;;;;;;5036791;28;20191;-58
2024/02/24 04:39:37;;;;;;;5.90;3.20;;;;;;;;;;5034611;28;20545;-58
2024/02/24 04:42:03;;;;;;;7.10;2.70;;;;;;;;;;5042962;28;20202;-55
2024/02/24 04:44:29;;;;;;;6.23;2.93;;;;;;;;;;5042776;28;20656;-57
2024/02/24 04:46:55;;;;;;;6.40;3.23;;;;;;;;;;5030286;28;20308;-55
2024/02/24 04:49:21;;;;;;;9.40;3.17;;;;;;;;;;5031245;28;20223;-54
2024/02/24 04:51:47;;;;;;;4.77;2.80;;;;;;;;;;5047567;28;20231;-56
2024/02/24 04:54:13;;;;;;;5.90;3.00;;;;;;;;;;5031537;28;20203;-56
2024/02/24 04:56:39;;;;;;;6.00;2.47;;;0.90;99.90;;;;;;5039210;28;20191;-54
2024/02/24 04:59:05;;;;;;;4.13;2.40;;;2.70;99.90;;;;;;5035548;28;20275;-58
2024/02/24 05:01:30;;;;;;;4.37;2.50;;;2.80;99.90;;;;;;5042179;28;20289;-55
2024/02/24 05:03:56;;;;;;;2.97;1.97;;;2.90;99.90;;;;;;5030969;28;20234;-55
2024/02/24 05:06:21;;;;;;;8.93;2.63;;;3.00;99.90;;;;;;5038342;28;20191;-55
2024/02/24 05:08:47;;;;;;;6.17;1.80;;;2.90;99.90;;;;;;5030917;28;20762;-57
2024/02/24 05:11:13;;;;;;;8.23;1.87;;;3.00;99.90;;;;;;5038981;28;20191;-54
2024/02/24 05:13:39;;;;;;;4.03;1.80;;;3.10;99.90;;;;;;5030309;28;20643;-56
2024/02/24 05:16:05;;;;;;;2.70;1.77;;;;;;;;;;5030317;28;20218;-55
2024/02/24 05:18:31;;;;;;;4.07;1.73;;;;;;;;;;5038220;28;20245;-57
2024/02/24 05:20:59;;;;;;;1.87;1.37;;;3.10;99.90;;;;;;5030785;28;20524;-55
2024/02/24 05:23:25;;;;;;;3.07;1.47;;;3.10;99.90;;;;;;5030375;28;20187;-53
2024/02/24 05:25:50;;;;;;;2.20;1.13;;;3.00;99.90;;;;;;5041311;28;20186;-57
2024/02/24 05:28:16;;;;;;;4.40;1.40;;;3.00;99.90;;;;;;5041494;28;20223;-55
2024/02/24 05:30:41;;;;;;;3.30;1.47;;;3.10;99.90;;;;;;5040165;28;20663;-53
2024/02/24 05:33:08;;;;;;;4.70;1.40;;;3.00;99.90;;;;;;5030245;28;20268;-54
2024/02/24 05:35:33;;;;;;;3.43;1.20;;;3.00;99.90;;;;;;5038809;28;20183;-57
2024/02/24 05:37:59;;;;;;;4.57;1.20;;;3.10;99.90;;;;;;5045214;28;20199;-55
2024/02/24 05:40:25;;;;;;;3.97;1.43;;;3.00;99.90;;;;;;5030214;28;20218;-54
2024/02/24 05:42:51;;;;;;;2.27;1.50;;;3.00;99.90;;;;;;5029727;28;20234;-55
2024/02/24 05:45:17;;;;;;;6.47;1.40;;;3.10;99.90;;;;;;5036449;28;20186;-53
2024/02/24 05:47:43;;;;;;;2.40;1.47;;;3.10;99.90;;;;;;5032539;28;20207;-55
2024/02/24 05:50:09;;;;;;;4.03;2.10;;;3.20;99.90;;;;;;5041777;28;20724;-53
2024/02/24 05:52:35;;;;;;;5.93;2.40;;;3.20;99.90;;;;;;5041358;28;20218;-56
2024/02/24 05:55:06;;;;;;;3.27;1.73;;;3.20;99.90;;;;;;5045337;28;20191;-56
2024/02/24 05:57:32;;;;;;;6.07;2.40;;;3.30;99.90;;;;;;5037682;28;20726;-55
2024/02/24 05:59:58;;;;;;;4.27;2.10;;;3.20;99.90;;;;;;5041327;28;20324;-55
2024/02/24 06:02:23;;;;;;;2.83;1.50;;;3.10;99.90;;;;;;5042570;28;20418;-54
2024/02/24 06:04:49;;;;;;;2.67;1.47;;;3.00;99.90;;;;;;5037976;28;20190;-55
2024/02/24 06:07:14;;;;;;;5.10;1.80;;;3.10;99.90;;;;;;5029077;28;20215;-55
2024/02/24 06:09:40;;;;;;;7.33;2.67;;;3.10;99.90;;;;;;5037862;28;20194;-53
2024/02/24 06:12:06;;;;;;;2.67;1.80;;;2.90;99.90;;;;;;5042665;28;20223;-55
2024/02/24 06:14:31;;;;;;;2.83;1.40;;;3.10;99.90;;;;;;5033025;28;20195;-55
2024/02/24 06:16:57;;;;;;;2.80;1.40;;;3.20;99.90;;;;;;5032737;28;20265;-54
2024/02/24 06:19:22;;;;;;;2.77;1.30;;;3.20;99.90;;;;;;5042235;28;20203;-56
2024/02/24 06:21:48;;;;;;;2.63;1.57;;;3.20;99.90;;;;;;5040047;28;20265;-55
2024/02/24 06:24:13;;;;;;;4.60;1.97;;;3.20;99.90;;;;;;5035303;28;20192;-55
2024/02/24 06:26:39;;;;;;;5.93;2.60;;;3.30;99.90;;;;;;5037373;28;20217;-53
2024/02/24 06:29:04;;;;;;;15.10;5.33;;;3.30;99.90;;;;;;5033308;28;20718;-57
2024/02/24 06:31:30;;;;;;;6.10;2.17;;;3.30;99.90;;;;;;5031787;28;20214;-60
2024/02/24 06:33:56;;;;;;;3.73;1.93;;;3.40;99.90;;;;;;5036770;28;20195;-55
2024/02/24 06:36:21;;;;;;;6.33;1.80;;;3.40;99.90;;;;;;5043476;28;20265;-56
2024/02/24 06:38:47;;;;;;;4.93;1.90;;;3.50;99.90;;;;;;5037481;28;20180;-57
2024/02/24 06:41:12;;;;;;;3.67;2.07;;;3.60;99.90;;;;;;5034717;28;20182;-55
2024/02/24 06:43:38;;;;;;;4.57;2.20;;;3.60;99.90;;;;;;5039966;28;20210;-56
2024/02/24 06:46:03;;;;;;;5.63;2.33;;;3.70;99.90;;;;;;5044035;28;20620;-54
2024/02/24 06:48:29;;;;;;;3.07;2.10;;;3.70;99.90;;;;;;5031150;28;20211;-57
2024/02/24 06:50:55;;;;;;;4.20;1.60;;;3.80;99.90;;;;;;5044061;28;20211;-57
2024/02/24 06:53:20;;;;;;;3.07;2.00;;;3.80;99.90;;;;;;5044290;28;20230;-56
2024/02/24 06:55:46;;;;;;;4.20;2.10;;;3.80;99.90;;;;;;5033653;28;20553;-57
2024/02/24 06:58:11;;;;;;;5.10;2.03;;;3.90;99.90;;;;;;5031928;28;20199;-54
2024/02/24 07:00:37;;;;;;;7.00;2.37;;;3.90;99.90;;;;;;5040665;28;20195;-58
2024/02/24 07:03:03;;;;;;;4.80;2.00;;;4.00;99.90;;;;;;5037044;28;20231;-53
2024/02/24 07:05:28;;;;;;;3.83;2.27;;;3.90;99.90;;;;;;5044307;28;20188;-53
2024/02/24 07:07:55;;;;;;;7.70;3.47;;;3.90;99.90;;;;;;5039822;28;20230;-56
2024/02/24 07:10:20;;;;;;;9.27;2.87;;;4.00;99.90;;;;;;5039196;28;20240;-53
2024/02/24 07:12:48;;;;;;;7.87;2.03;;;4.00;99.90;;;;;;5041580;28;20203;-57
2024/02/24 07:15:14;;;;;;;4.67;2.33;;;4.10;99.90;;;;;;5040465;28;20191;-54
2024/02/24 07:17:40;;;;;;;4.47;2.10;;;4.10;99.90;;;;;;5031445;28;20543;-57
2024/02/24 07:20:06;;;;;;;5.87;2.33;;;4.20;99.90;;;;;;5040398;28;20241;-56
2024/02/24 07:22:32;;;;;;;5.30;2.77;;;4.20;99.90;;;;;;5048516;28;20211;-54
2024/02/24 07:24:57;;;;;;;5.30;3.47;;;4.30;99.90;;;;;;5031871;28;20211;-57
2024/02/24 07:27:23;;;;;;;4.10;2.50;;;4.30;99.90;;;;;;5039625;28;20211;-53
2024/02/24 07:29:49;;;;;;;11.47;4.43;;;4.30;99.90;;;;;;5032388;28;20195;-53
2024/02/24 07:32:14;;;;;;;5.73;2.53;;;4.40;99.90;;;;;;5031944;28;20663;-54
2024/02/24 07:34:40;;;;;;;5.60;2.60;;;4.50;99.90;;;;;;5031826;28;20625;-55
2024/02/24 07:37:05;;;;;;;7.30;2.60;;;4.50;99.90;;;;;;5031273;28;20218;-58
2024/02/24 07:39:31;;;;;;;5.87;2.30;;;4.60;99.90;;;;;;5039881;28;20245;-57
2024/02/24 07:41:57;;;;;;;5.87;2.57;;;4.60;99.90;;;;;;5048006;28;20204;-54
2024/02/24 07:44:22;;;;;;;4.27;2.37;;;4.50;99.90;;;;;;5031497;28;20273;-54
2024/02/24 07:46:48;;;;;;;4.33;2.90;;;4.60;99.90;;;;;;5041459;28;20218;-58
2024/02/24 07:49:14;;;;;;;5.10;2.80;;;4.60;99.90;;;;;;5045695;28;20195;-54
2024/02/24 07:51:39;;;;;;;6.13;2.93;;;4.70;99.90;;;;;;5040003;28;20210;-52
2024/02/24 07:54:05;;;;;;;5.43;2.80;;;4.80;99.90;;;;;;5031454;28;20647;-53
2024/02/24 07:56:30;;;;;;;7.80;3.67;;;4.80;99.90;;;;;;5039818;28;20217;-55
2024/02/24 07:58:56;;;;;;;7.73;3.10;;;4.90;99.90;;;;;;5046073;28;20216;-56
2024/02/24 08:01:22;;;;;;;7.60;3.27;;;4.90;99.90;;;;;;5031326;28;20932;-54
2024/02/24 08:03:47;;;;;;;5.70;3.50;;;4.90;99.90;;;;;;5041929;28;20575;-53
2024/02/24 08:06:13;;;;;;;9.77;2.80;;;5.00;99.90;;;;;;5037058;28;20199;-55
2024/02/24 08:08:38;;;;;;;8.77;4.73;;;5.00;99.90;;;;;;5047407;28;20218;-57
2024/02/24 08:11:04;;;;;;;7.37;3.63;;;5.00;99.90;;;;;;5043286;28;20661;-58
2024/02/24 08:13:30;;;;;;;5.13;2.90;;;5.10;99.90;;;;;;5054088;28;20190;-57
2024/02/24 08:15:56;;;;;;;12.90;5.17;;;5.00;99.90;;;;;;5055095;28;20274;-60
2024/02/24 08:18:22;;;;;;;5.67;1.90;;;5.10;99.90;;;;;;5056105;28;20288;-56
2024/02/24 08:20:48;;;;;;;4.23;2.40;;;4.90;99.90;;;;;;5055082;28;20879;-55
2024/02/24 08:23:15;;;;;;;3.93;2.20;;;5.10;99.90;;;;;;5058066;28;20211;-54
2024/02/24 08:25:40;;;;;;;3.63;2.33;;;5.20;99.90;;;;;;5054523;28;20190;-52
2024/02/24 08:28:06;;;;;;;5.83;2.80;;;5.20;99.90;;;;;;5053894;28;20299;-55
2024/02/24 08:30:32;;;;;;;6.30;2.00;;;5.40;99.90;;;;;;5056265;28;20244;-58
2024/02/24 08:32:57;;;;;;;5.10;1.90;;;5.40;99.90;;;;;;5051117;28;20217;-57
2024/02/24 08:35:23;;;;;;;4.20;2.23;;;5.50;99.90;;;;;;5043133;28;20187;-55
2024/02/24 08:37:49;;;;;;;5.27;1.80;;;5.50;99.90;;;;;;5047429;28;20202;-57
2024/02/24 08:40:15;;;;;;;5.53;1.83;;;5.50;99.90;;;;;;5030549;28;20196;-55
2024/02/24 08:42:41;;;;;;;6.27;1.93;;;5.50;99.90;;;;;;5038723;28;20715;-57
2024/02/24 08:45:06;;;;;;;3.93;1.93;;;5.40;99.90;;;;;;5043290;28;20313;-55
2024/02/24 08:47:32;;;;;;;54.90;34.30;;;5.40;99.90;;;;;;5041492;28;20218;-57
2024/02/24 08:49:58;;;;;;;7.93;4.47;;;5.50;99.90;;;;;;5030488;28;20190;-57
2024/02/24 08:52:23;;;;;;;23.47;9.10;;;5.50;99.90;;;;;;5030482;28;20227;-55
2024/02/24 08:54:49;;;;;;;3.40;2.10;;;5.50;99.90;;;;;;5038195;28;20263;-57
2024/02/24 08:57:15;;;;;;;4.10;1.90;;;5.50;99.90;;;;;;5029683;28;20195;-55
2024/02/24 08:59:40;;;;;;;3.57;1.77;;;5.50;99.90;;;;;;5046895;28;20195;-54
2024/02/24 09:02:06;;;;;;;6.80;2.43;;;5.60;99.90;;;;;;5038531;28;20243;-55
2024/02/24 09:04:32;;;;;;;8.47;7.30;;;5.70;99.90;;;;;;5046680;28;20664;-61
2024/02/24 09:06:57;;;;;;;5.73;3.90;;;5.80;99.90;;;;;;5040790;28;20211;-58
2024/02/24 09:09:23;;;;;;;3.43;2.30;;;5.80;99.90;;;;;;5041392;28;20510;-56
2024/02/24 09:11:49;;;;;;;1.70;1.27;;;5.80;99.90;;;;;;5032896;28;20211;-55
2024/02/24 09:14:15;;;;;;;2.33;1.20;;;5.70;99.90;;;;;;5034880;28;20187;-56
2024/02/24 09:16:40;;;;;;;3.97;1.70;;;5.80;99.90;;;;;;5031174;28;20180;-56
2024/02/24 09:19:06;;;;;;;3.73;1.50;;;6.00;99.90;;;;;;5044872;28;20656;-53
2024/02/24 09:21:32;;;;;;;2.90;1.53;;;6.00;99.90;;;;;;5038023;28;20687;-54
2024/02/24 09:23:57;;;;;;;2.27;1.27;;;6.10;99.90;;;;;;5029749;28;20239;-58
2024/02/24 09:26:23;;;;;;;2.67;1.50;;;6.10;99.90;;;;;;5029429;28;20270;-55
2024/02/24 09:28:49;;;;;;;2.87;1.40;;;6.20;99.90;;;;;;5037152;28;20701;-53
2024/02/24 09:31:15;;;;;;;4.60;1.53;;;6.30;99.90;;;;;;5035332;28;20183;-54
2024/02/24 09:33:40;;;;;;;1.13;0.83;;;6.20;99.90;;;;;;5040195;28;20190;-52
2024/02/24 09:36:06;;;;;;;3.57;1.57;;;6.20;99.90;;;;;;5033929;28;20179;-52
2024/02/24 09:38:32;;;;;;;2.37;1.10;;;6.30;99.90;;;;;;5040661;28;20862;-54
2024/02/24 09:40:57;;;;;;;2.80;1.40;;;6.40;99.90;;;;;;5029316;28;20176;-58
2024/02/24 09:43:23;;;;;;;1.57;0.90;;;6.60;99.90;;;;;;5029214;28;20245;-52
2024/02/24 09:45:49;;;;;;;2.60;0.87;;;6.90;99.90;;;;;;5037534;28;20211;-52
2024/02/24 09:48:15;;;;;;;1.70;0.87;;;7.30;99.90;;;;;;5034754;28;20211;-58
2024/02/24 09:50:42;;;;;;;1.00;0.70;;;7.50;99.90;;;;;;5032531;28;20788;-51
2024/02/24 09:53:08;;;;;;;0.90;0.50;;;7.40;99.90;;;;;;5036166;28;20299;-55
2024/02/24 09:55:34;;;;;;;1.20;0.50;;;7.40;99.90;;;;;;5029080;28;20690;-52
2024/02/24 09:58:01;;;;;;;2.03;0.80;;;7.20;99.90;;;;;;5048659;28;20193;-55
2024/02/24 10:00:27;;;;;;;3.20;0.60;;;7.10;99.90;;;;;;5033616;28;20195;-54
2024/02/24 10:02:53;;;;;;;0.83;0.50;;;7.10;99.90;;;;;;5037175;28;20220;-53
2024/02/24 10:05:18;;;;;;;1.30;0.60;;;6.90;99.90;;;;;;5035172;28;20230;-56
2024/02/24 10:07:47;;;;;;;2.23;0.60;;;6.60;99.90;;;;;;5038810;28;20203;-55
2024/02/24 10:10:15;;;;;;;2.00;0.80;;;6.50;99.90;;;;;;5028961;28;20187;-55
2024/02/24 10:13:02;;;;;;;0.80;0.70;;;6.20;99.90;;;;;;5038035;28;20709;-52
2024/02/24 10:15:29;;;;;;;1.30;0.60;;;6.10;99.90;;;;;;5033097;28;20196;-52
2024/02/24 10:17:56;;;;;;;0.63;0.50;;;6.00;99.90;;;;;;5036528;28;20194;-55
2024/02/24 10:20:22;;;;;;;2.17;0.60;;;5.90;99.90;;;;;;5037197;28;20214;-53
2024/02/24 10:22:47;;;;;;;2.60;0.60;;;5.90;99.90;;;;;;5036627;28;20206;-55
2024/02/24 10:25:14;;;;;;;1.03;0.63;;;5.90;99.90;;;;;;5042626;28;20234;-55
2024/02/24 10:27:42;;;;;;;0.83;0.60;;;5.90;99.90;;;;;;5039865;28;20283;-54
2024/02/24 10:30:09;;;;;;;2.60;1.67;;;6.00;99.90;;;;;;5036045;28;20193;-54
2024/02/24 10:32:35;;;;;;;1.00;0.80;;;6.30;99.90;;;;;;5045101;28;20658;-53
2024/02/24 10:35:05;;;;;;;1.40;0.60;;;6.70;99.90;;;;;;5028650;28;20271;-54
2024/02/24 10:37:32;;;;;;;1.10;0.40;;;7.00;99.90;;;;;;5036609;28;20253;-54
2024/02/24 10:40:00;;;;;;;4.00;0.50;;;7.30;99.90;;;;;;5028487;28;20218;-56
2024/02/24 10:42:28;;;;;;;0.43;0.40;;;7.20;99.90;;;;;;5028608;28;20588;-53
2024/02/24 10:44:57;;;;;;;1.10;0.40;;;7.40;99.90;;;;;;5028334;28;20258;-52
2024/02/24 10:47:25;;;;;;;0.70;0.40;;;7.60;99.90;;;;;;5035411;28;20317;-59
2024/02/24 10:49:50;;;;;;;0.60;0.50;;;7.70;99.90;;;;;;5040539;28;20720;-58
2024/02/24 10:52:19;;;;;;;1.70;1.00;;;7.60;99.90;;;;;;5034417;28;20207;-57
2024/02/24 10:54:47;;;;;;;1.70;0.70;;;7.40;99.90;;;;;;5044712;28;20201;-59
2024/02/24 10:57:15;;;;;;;0.83;0.30;;;7.10;99.90;;;;;;5041732;28;20637;-60
2024/02/24 10:59:40;;;;;;;1.37;0.77;;;6.80;99.90;;;;;;5030921;28;20550;-59
2024/02/24 11:02:06;;;;;;;0.50;0.40;;;6.80;99.90;;;;;;5028511;28;20655;-61
2024/02/24 11:04:36;;;;;;;0.53;0.50;;;7.00;99.90;;;;;;5028792;28;20640;-59
2024/02/24 11:07:04;;;;;;;1.30;0.47;;;7.40;99.90;;;;;;5027755;28;20746;-61
2024/02/24 11:09:39;;;;;;;3.10;0.40;;;8.00;99.90;;;;;;5036452;28;20562;-60
2024/02/24 11:12:08;;;;;;;0.30;0.30;;;8.70;99.90;;;;;;5028275;28;20208;-58
2024/02/24 11:14:38;;;;;;;0.50;0.37;;;8.90;99.90;;;;;;5028310;28;20195;-60
2024/02/24 11:17:04;;;;;;;1.50;0.40;;;9.10;99.90;;;;;;5027622;28;20675;-58
2024/02/24 11:19:46;;;;;;;0.30;0.30;;;9.00;99.90;;;;;;5028186;28;20287;-58
2024/02/24 11:22:24;;;;;;;0.37;0.30;;;8.90;99.90;;;;;;5036611;28;20222;-60
2024/02/24 11:25:04;;;;;;;0.83;0.30;;;8.60;99.90;;;;;;5036261;28;20269;-61
2024/02/24 11:27:36;;;;;;;2.10;0.30;;;8.50;99.90;;;;;;5035420;28;20222;-59
2024/02/24 11:30:35;;;;;;;0.80;0.47;;;8.20;99.90;;;;;;5044471;28;20719;-59
2024/02/24 11:33:27;;;;;;;0.33;0.30;;;7.80;99.90;;;;;;5036977;28;20234;-60
2024/02/24 11:35:54;;;;;;;0.50;0.40;;;7.60;99.90;;;;;;5040067;28;20216;-59
2024/02/24 11:38:21;;;;;;;0.60;0.40;;;7.30;99.90;;;;;;5039870;28;20183;-59
2024/02/24 11:40:48;;;;;;;2.67;0.33;;;7.20;99.90;;;;;;5040029;28;20187;-59
2024/02/24 11:43:14;;;;;;;2.50;0.40;;;7.20;99.90;;;;;;5031659;28;20219;-59
2024/02/24 11:45:53;;;;;;;2.33;0.40;;;7.30;99.90;;;;;;5040055;28;20264;-59
2024/02/24 11:48:19;;;;;;;1.07;0.60;;;7.50;99.90;;;;;;5031118;28;20246;-59
2024/02/24 11:50:46;;;;;;;1.27;0.60;;;8.10;99.90;;;;;;5039321;28;20183;-59
2024/02/24 11:53:14;;;;;;;1.60;0.67;;;8.60;99.90;;;;;;5029755;28;20204;-59
2024/02/24 11:55:40;;;;;;;2.23;0.60;;;8.90;99.90;;;;;;5037836;28;20564;-60
2024/02/24 11:58:09;;;;;;;0.70;0.40;;;9.00;99.90;;;;;;5029187;28;20237;-58
2024/02/24 12:00:38;;;;;;;3.87;0.50;;;8.70;99.90;;;;;;5037716;28;20263;-60
2024/02/24 12:03:09;;;;;;;0.43;0.30;;;8.60;99.90;;;;;;5029622;28;20242;-59
2024/02/24 12:05:34;;;;;;;5.57;2.00;;;8.40;99.90;;;;;;5037383;28;20178;-58
2024/02/24 12:08:04;;;;;;;1.20;0.50;;;8.50;99.90;;;;;;5038174;28;20290;-60
2024/02/24 12:10:36;;;;;;;2.00;0.40;;;8.80;99.90;;;;;;5039319;28;20564;-59
2024/02/24 12:13:10;;;;;;;0.67;0.40;;;8.70;99.90;;;;;;5039344;28;20291;-58
2024/02/24 12:15:43;;;;;;;1.00;0.50;;;8.60;99.90;;;;;;5038914;28;20948;-59
2024/02/24 12:18:09;;;;;;;1.83;0.40;;;8.50;99.90;;;;;;5043359;28;20183;-59
2024/02/24 12:20:39;;;;;;;2.80;0.53;;;8.40;99.90;;;;;;5034373;28;20270;-59
2024/02/24 12:23:06;;;;;;;1.73;0.30;;;8.20;99.90;;;;;;5030681;28;20215;-59
2024/02/24 12:25:32;;;;;;;1.43;0.40;;;8.00;99.90;;;;;;5038689;28;20187;-59
2024/02/24 12:27:59;;;;;;;2.50;0.30;;;7.70;99.90;;;;;;5038514;28;20302;-61
2024/02/24 12:30:26;;;;;;;0.87;0.30;;;7.80;99.90;;;;;;5030873;28;20183;-61
2024/02/24 12:32:52;;;;;;;0.97;0.40;;;8.00;99.90;;;;;;5039001;28;20211;-61
2024/02/24 12:35:24;;;;;;;1.90;0.53;;;8.30;99.90;;;;;;5030778;28;20180;-61
2024/02/24 12:37:54;;;;;;;0.83;0.30;;;8.20;99.90;;;;;;5030065;28;20188;-62
2024/02/24 12:40:31;;;;;;;0.60;0.30;;;8.30;99.90;;;;;;5030485;28;20329;-60
2024/02/24 12:42:57;;;;;;;2.97;0.50;;;8.90;99.90;;;;;;5046911;28;20203;-60
2024/02/24 12:45:23;;;;;;;1.00;0.43;;;9.30;99.90;;;;;;5044743;28;20306;-60
2024/02/24 12:47:49;;;;;;;0.97;0.50;;;9.90;99.90;;;;;;5039353;28;20199;-59
2024/02/24 12:50:19;;;;;;;1.07;0.50;;;10.10;99.90;;;;;;5038597;28;20184;-59
2024/02/24 12:52:46;;;;;;;0.80;0.30;;;10.30;99.90;;;;;;5031364;28;20210;-58
2024/02/24 12:55:13;;;;;;;1.60;0.50;;;10.60;99.90;;;;;;5050111;28;20191;-62
2024/02/24 12:57:38;;;;;;;0.47;0.40;;;10.80;99.90;;;;;;5032749;28;20608;-60
2024/02/24 13:00:05;;;;;;;1.33;0.50;;;10.80;99.90;;;;;;5050024;28;20193;-60
2024/02/24 13:02:32;;;;;;;1.83;0.40;;;10.60;99.90;;;;;;5050123;28;20207;-59
2024/02/24 13:04:58;;;;;;;1.37;0.30;;;10.40;99.90;;;;;;5038670;28;20266;-60
2024/02/24 13:07:24;;;;;;;0.67;0.40;;;10.20;99.90;;;;;;5029263;28;20214;-61
2024/02/24 13:09:50;;;;;;;2.40;0.40;;;9.90;99.90;;;;;;5030024;28;20187;-61
2024/02/24 13:12:16;;;;;;;1.60;0.40;;;9.90;99.90;;;;;;5029724;28;20711;-58